createdAt,value
2017-08-23T00:00:13.010Z,16.20
2017-08-23T00:02:39.475Z,16.20
2017-08-23T00:05:05.863Z,16.20
2017-08-23T00:07:32.248Z,16.20
2017-08-23T00:09:58.646Z,16.20
2017-08-23T00:12:25.092Z,16.20
2017-08-23T00:14:51.504Z,16.10
2017-08-23T00:17:17.883Z,16.20
2017-08-23T00:19:44.348Z,16.10
2017-08-23T00:22:10.807Z,16.10
2017-08-23T00:24:37.196Z,16.00
2017-08-23T00:27:03.599Z,16.00
2017-08-23T00:29:29.980Z,16.00
2017-08-23T00:31:56.463Z,16.00
2017-08-23T00:34:22.843Z,16.00
2017-08-23T00:36:49.251Z,16.00
2017-08-23T00:39:15.660Z,16.00
2017-08-23T00:41:42.055Z,15.90
2017-08-23T00:44:08.471Z,15.90
2017-08-23T00:46:34.896Z,15.90
2017-08-23T00:49:01.324Z,15.90
2017-08-23T00:51:27.810Z,15.90
2017-08-23T00:53:54.262Z,15.90
2017-08-23T00:56:20.679Z,15.80
2017-08-23T00:58:47.092Z,15.90
2017-08-23T01:01:13.611Z,15.80
2017-08-23T01:03:40.015Z,15.80
2017-08-23T01:06:06.394Z,15.80
2017-08-23T01:08:32.790Z,15.80
2017-08-23T01:10:59.247Z,15.70
2017-08-23T01:13:25.676Z,15.70
2017-08-23T01:15:52.086Z,15.60
2017-08-23T01:18:18.464Z,15.60
2017-08-23T01:20:44.922Z,15.60
2017-08-23T01:23:11.329Z,15.50
2017-08-23T01:25:37.708Z,15.50
2017-08-23T01:28:04.116Z,15.50
2017-08-23T01:30:30.556Z,15.50
2017-08-23T01:32:57.099Z,15.40
2017-08-23T01:35:23.571Z,15.40
2017-08-23T01:37:49.990Z,15.40
2017-08-23T01:40:16.383Z,15.40
2017-08-23T01:42:42.816Z,15.30
2017-08-23T01:45:09.198Z,15.30
2017-08-23T01:47:35.607Z,15.30
2017-08-23T01:50:01.991Z,15.20
2017-08-23T01:52:28.443Z,15.30
2017-08-23T01:54:54.831Z,15.30
2017-08-23T01:57:21.247Z,15.30
2017-08-23T01:59:47.610Z,15.10
2017-08-23T02:02:14.083Z,15.00
2017-08-23T02:04:40.466Z,14.90
2017-08-23T02:07:06.859Z,14.90
2017-08-23T02:09:33.272Z,14.80
2017-08-23T02:11:59.668Z,14.80
2017-08-23T02:14:26.055Z,14.80
2017-08-23T02:16:52.439Z,14.80
2017-08-23T02:19:18.848Z,14.70
2017-08-23T02:21:45.299Z,14.80
2017-08-23T02:24:11.701Z,14.70
2017-08-23T02:26:38.078Z,14.70
2017-08-23T02:29:04.483Z,14.70
2017-08-23T02:31:30.924Z,14.70
2017-08-23T02:33:57.324Z,14.60
2017-08-23T02:36:23.732Z,14.60
2017-08-23T02:38:50.131Z,14.50
2017-08-23T02:41:16.570Z,14.50
2017-08-23T02:43:42.953Z,14.60
2017-08-23T02:46:09.362Z,14.60
2017-08-23T02:48:35.778Z,14.50
2017-08-23T02:51:02.191Z,14.60
2017-08-23T02:53:28.556Z,14.70
2017-08-23T02:55:54.965Z,14.60
2017-08-23T02:58:21.349Z,14.50
2017-08-23T03:00:47.864Z,14.40
2017-08-23T03:03:14.290Z,14.40
2017-08-23T03:05:40.672Z,14.40
2017-08-23T03:08:07.067Z,14.40
2017-08-23T03:10:33.471Z,14.40
2017-08-23T03:12:59.942Z,14.40
2017-08-23T03:15:26.388Z,14.40
2017-08-23T03:17:52.795Z,14.50
2017-08-23T03:20:19.207Z,14.40
2017-08-23T03:22:45.627Z,14.40
2017-08-23T03:25:12.023Z,14.50
2017-08-23T03:27:38.394Z,14.40
2017-08-23T03:30:04.781Z,14.40
2017-08-23T03:32:31.285Z,14.40
2017-08-23T03:34:57.706Z,14.30
2017-08-23T03:37:24.115Z,14.30
2017-08-23T03:39:50.507Z,14.30
2017-08-23T03:42:16.926Z,14.40
2017-08-23T03:44:43.307Z,14.40
2017-08-23T03:47:09.694Z,14.40
2017-08-23T03:49:36.097Z,14.30
2017-08-23T03:52:02.520Z,14.30
2017-08-23T03:54:28.928Z,14.30
2017-08-23T03:56:55.335Z,14.30
2017-08-23T03:59:21.711Z,14.30
2017-08-23T04:01:48.122Z,14.20
2017-08-23T04:04:14.503Z,14.20
2017-08-23T04:06:40.915Z,14.10
2017-08-23T04:09:07.331Z,14.20
2017-08-23T04:11:33.740Z,14.20
2017-08-23T04:14:00.131Z,14.20
2017-08-23T04:16:26.524Z,14.30
2017-08-23T04:18:52.930Z,14.20
2017-08-23T04:21:19.363Z,14.20
2017-08-23T04:23:45.780Z,14.20
2017-08-23T04:26:12.199Z,14.10
2017-08-23T04:28:38.588Z,14.20
2017-08-23T04:31:04.998Z,14.20
2017-08-23T04:33:31.407Z,14.10
2017-08-23T04:35:57.798Z,14.10
2017-08-23T04:38:24.216Z,14.00
2017-08-23T04:40:50.634Z,14.00
2017-08-23T04:43:17.032Z,14.00
2017-08-23T04:45:43.400Z,14.00
2017-08-23T04:48:09.799Z,14.00
2017-08-23T04:50:36.219Z,14.00
2017-08-23T04:53:02.611Z,14.10
2017-08-23T04:55:29.049Z,14.20
2017-08-23T04:57:55.435Z,14.20
2017-08-23T05:00:21.830Z,14.30
2017-08-23T05:02:48.250Z,14.40
2017-08-23T05:05:14.748Z,14.40
2017-08-23T05:07:41.116Z,14.40
2017-08-23T05:10:07.492Z,14.50
2017-08-23T05:12:33.916Z,14.50
2017-08-23T05:15:00.304Z,14.50
2017-08-23T05:17:26.683Z,14.50
2017-08-23T05:19:53.101Z,14.50
2017-08-23T05:22:19.491Z,14.60
2017-08-23T05:24:45.920Z,14.70
2017-08-23T05:27:12.326Z,14.70
2017-08-23T05:29:38.714Z,14.80
2017-08-23T05:32:05.100Z,14.90
2017-08-23T05:34:31.536Z,14.90
2017-08-23T05:36:57.987Z,15.00
2017-08-23T05:39:24.412Z,15.00
2017-08-23T05:41:50.820Z,15.00
2017-08-23T05:44:17.232Z,15.00
2017-08-23T05:46:43.713Z,15.00
2017-08-23T05:49:10.145Z,15.00
2017-08-23T05:51:36.556Z,15.20
2017-08-23T05:54:02.971Z,15.30
2017-08-23T05:56:29.373Z,15.40
2017-08-23T05:58:55.781Z,15.40
2017-08-23T06:01:22.193Z,15.50
2017-08-23T06:03:48.599Z,15.60
2017-08-23T06:06:15.048Z,15.70
2017-08-23T06:08:41.431Z,15.70
2017-08-23T06:11:07.852Z,15.70
2017-08-23T06:13:34.232Z,15.70
2017-08-23T06:16:00.608Z,15.70
2017-08-23T06:18:27.016Z,15.70
2017-08-23T06:20:53.419Z,15.80
2017-08-23T06:23:19.827Z,15.80
2017-08-23T06:25:46.250Z,15.90
2017-08-23T06:28:12.640Z,16.00
2017-08-23T06:30:39.075Z,16.00
2017-08-23T06:33:05.467Z,16.10
2017-08-23T06:35:31.879Z,16.20
2017-08-23T06:37:58.274Z,16.20
2017-08-23T06:40:24.672Z,16.20
2017-08-23T06:42:51.112Z,16.30
2017-08-23T06:45:17.512Z,16.40
2017-08-23T06:47:43.907Z,16.50
2017-08-23T06:50:10.305Z,16.50
2017-08-23T06:52:36.730Z,16.50
2017-08-23T06:55:03.136Z,16.60
2017-08-23T06:57:29.660Z,16.70
2017-08-23T06:59:56.044Z,16.80
2017-08-23T07:02:22.436Z,16.80
2017-08-23T07:04:48.832Z,16.90
2017-08-23T07:07:15.204Z,17.00
2017-08-23T07:09:41.617Z,17.00
2017-08-23T07:12:08.011Z,17.00
2017-08-23T07:14:34.388Z,17.00
2017-08-23T07:17:00.842Z,17.00
2017-08-23T07:19:27.260Z,17.10
2017-08-23T07:21:53.679Z,17.10
2017-08-23T07:24:20.091Z,17.20
2017-08-23T07:26:46.492Z,17.20
2017-08-23T07:29:12.903Z,17.30
2017-08-23T07:31:39.352Z,17.30
2017-08-23T07:34:05.772Z,17.40
2017-08-23T07:36:32.180Z,17.50
2017-08-23T07:38:58.570Z,17.60
2017-08-23T07:41:24.984Z,17.60
2017-08-23T07:43:51.356Z,17.60
2017-08-23T07:46:17.795Z,17.70
2017-08-23T07:48:44.931Z,17.70
2017-08-23T07:51:11.348Z,17.70
2017-08-23T07:53:37.728Z,17.80
2017-08-23T07:56:04.111Z,17.90
2017-08-23T07:58:30.517Z,17.90
2017-08-23T08:00:56.912Z,17.90
2017-08-23T08:03:23.307Z,18.00
2017-08-23T08:05:49.713Z,18.00
2017-08-23T08:08:16.183Z,18.10
2017-08-23T08:10:42.561Z,18.20
2017-08-23T08:13:08.950Z,18.20
2017-08-23T08:15:35.357Z,18.30
2017-08-23T08:18:01.763Z,18.30
2017-08-23T08:20:28.159Z,18.40
2017-08-23T08:22:54.593Z,18.50
2017-08-23T08:25:20.971Z,18.50
2017-08-23T08:27:47.375Z,18.60
2017-08-23T08:30:13.764Z,18.60
2017-08-23T08:32:40.184Z,18.70
2017-08-23T08:35:06.623Z,18.60
2017-08-23T08:37:33.032Z,18.70
2017-08-23T08:39:59.399Z,18.80
2017-08-23T08:42:40.716Z,18.90
2017-08-23T08:45:07.135Z,18.90
2017-08-23T08:47:33.535Z,19.00
2017-08-23T08:49:59.907Z,19.00
2017-08-23T08:52:26.332Z,19.10
2017-08-23T08:54:53.448Z,19.20
2017-08-23T08:57:19.833Z,19.30
2017-08-23T08:59:46.244Z,19.30
2017-08-23T09:02:12.681Z,19.40
2017-08-23T09:04:39.072Z,19.40
2017-08-23T09:07:05.448Z,19.50
2017-08-23T09:09:31.866Z,19.50
2017-08-23T09:11:58.246Z,19.50
2017-08-23T09:14:24.639Z,19.60
2017-08-23T09:16:51.044Z,19.60
2017-08-23T09:19:17.471Z,19.60
2017-08-23T09:21:43.871Z,19.60
2017-08-23T09:24:10.317Z,19.60
2017-08-23T09:26:36.708Z,19.70
2017-08-23T09:29:03.100Z,19.70
2017-08-23T09:31:29.511Z,19.80
2017-08-23T09:33:55.924Z,19.90
2017-08-23T09:36:22.334Z,19.90
2017-08-23T09:38:48.751Z,20.00
2017-08-23T09:41:15.135Z,20.00
2017-08-23T09:43:41.539Z,20.10
2017-08-23T09:46:08.664Z,20.30
2017-08-23T09:48:35.054Z,20.30
2017-08-23T09:51:01.464Z,20.30
2017-08-23T09:53:27.871Z,20.40
2017-08-23T09:55:54.254Z,20.50
2017-08-23T09:58:20.671Z,20.60
2017-08-23T10:00:47.055Z,20.60
2017-08-23T10:03:13.427Z,20.60
2017-08-23T10:05:39.840Z,20.70
2017-08-23T10:08:06.233Z,20.80
2017-08-23T10:10:32.631Z,20.80
2017-08-23T10:12:59.043Z,21.00
2017-08-23T10:15:25.450Z,21.20
2017-08-23T10:17:51.820Z,21.20
2017-08-23T10:20:18.223Z,21.20
2017-08-23T10:22:44.661Z,21.20
2017-08-23T10:25:11.072Z,21.40
2017-08-23T10:27:37.475Z,21.40
2017-08-23T10:30:03.862Z,21.50
2017-08-23T10:32:30.239Z,21.50
2017-08-23T10:34:56.679Z,21.60
2017-08-23T10:37:23.050Z,21.80
2017-08-23T10:39:49.599Z,22.00
2017-08-23T10:42:16.011Z,22.10
2017-08-23T10:44:42.399Z,22.10
2017-08-23T10:47:08.763Z,22.10
2017-08-23T10:49:35.162Z,22.20
2017-08-23T10:52:01.583Z,22.30
2017-08-23T10:54:27.967Z,22.40
2017-08-23T10:56:54.351Z,22.50
2017-08-23T10:59:20.755Z,22.40
2017-08-23T11:04:36.255Z,22.60
2017-08-23T11:07:02.647Z,22.70
2017-08-23T11:09:29.023Z,22.80
2017-08-23T11:11:55.430Z,22.90
2017-08-23T11:14:21.827Z,23.00
2017-08-23T11:16:48.364Z,23.10
2017-08-23T11:19:14.771Z,23.10
2017-08-23T11:21:41.155Z,23.20
2017-08-23T11:24:07.567Z,23.30
2017-08-23T11:26:33.966Z,23.30
2017-08-23T11:29:00.384Z,23.50
2017-08-23T11:31:26.776Z,23.60
2017-08-23T11:33:53.152Z,23.70
2017-08-23T11:36:19.575Z,23.80
2017-08-23T11:38:45.941Z,24.00
2017-08-23T11:41:12.318Z,24.10
2017-08-23T11:43:38.715Z,24.20
2017-08-23T11:46:05.097Z,24.20
2017-08-23T11:48:31.511Z,24.40
2017-08-23T11:50:57.912Z,24.50
2017-08-23T11:53:24.304Z,24.50
2017-08-23T11:55:50.695Z,24.60
2017-08-23T11:58:17.059Z,24.70
2017-08-23T12:00:43.455Z,24.80
2017-08-23T12:03:09.872Z,25.10
2017-08-23T12:05:36.284Z,25.20
2017-08-23T12:08:02.656Z,25.40
2017-08-23T12:10:29.197Z,25.60
2017-08-23T12:12:55.575Z,25.70
2017-08-23T12:15:21.975Z,26.00
2017-08-23T12:17:48.371Z,26.30
2017-08-23T12:20:14.776Z,26.60
2017-08-23T12:22:41.211Z,26.50
2017-08-23T12:25:07.583Z,26.50
2017-08-23T12:27:33.970Z,26.60
2017-08-23T12:30:00.366Z,26.80
2017-08-23T12:32:26.783Z,26.60
2017-08-23T12:34:53.158Z,26.80
2017-08-23T12:37:19.563Z,27.00
2017-08-23T12:39:45.972Z,27.10
2017-08-23T12:42:12.403Z,26.80
2017-08-23T12:44:38.828Z,26.80
2017-08-23T12:47:05.218Z,27.30
2017-08-23T12:49:31.586Z,27.10
2017-08-23T12:51:57.999Z,26.90
2017-08-23T12:54:24.411Z,27.20
2017-08-23T12:56:50.832Z,27.30
2017-08-23T12:59:17.240Z,27.30
2017-08-23T13:01:43.639Z,27.40
2017-08-23T13:04:10.042Z,27.50
2017-08-23T13:06:36.432Z,27.90
2017-08-23T13:09:02.895Z,28.30
2017-08-23T13:11:29.298Z,28.20
2017-08-23T13:13:55.715Z,28.20
2017-08-23T13:16:22.101Z,28.10
2017-08-23T13:18:48.507Z,28.20
2017-08-23T13:21:14.925Z,28.40
2017-08-23T13:23:41.328Z,28.40
2017-08-23T13:26:07.703Z,28.20
2017-08-23T13:28:34.180Z,28.30
2017-08-23T13:31:00.547Z,28.80
2017-08-23T13:33:26.953Z,28.90
2017-08-23T13:35:53.338Z,28.70
2017-08-23T13:38:19.761Z,28.90
2017-08-23T13:40:46.142Z,29.10
2017-08-23T13:43:12.554Z,28.60
2017-08-23T13:45:38.936Z,28.20
2017-08-23T13:48:05.309Z,28.00
2017-08-23T13:50:31.719Z,27.40
2017-08-23T13:52:58.231Z,27.00
2017-08-23T13:55:24.598Z,26.80
2017-08-23T13:57:50.979Z,26.70
2017-08-23T14:00:17.379Z,26.90
2017-08-23T14:02:43.755Z,26.90
2017-08-23T14:05:10.167Z,26.60
2017-08-23T14:07:36.548Z,26.50
2017-08-23T14:10:02.923Z,26.80
2017-08-23T14:12:29.343Z,26.70
2017-08-23T14:14:55.730Z,27.10
2017-08-23T14:17:22.107Z,27.50
2017-08-23T14:19:48.530Z,27.90
2017-08-23T14:22:14.935Z,28.60
2017-08-23T14:24:41.364Z,28.50
2017-08-23T14:27:07.772Z,28.80
2017-08-23T14:29:34.136Z,28.70
2017-08-23T14:32:00.540Z,29.20
2017-08-23T14:34:26.982Z,29.70
2017-08-23T14:36:53.383Z,30.00
2017-08-23T14:39:19.743Z,30.40
2017-08-23T14:41:46.146Z,30.50
2017-08-23T14:44:12.542Z,30.20
2017-08-23T14:46:38.943Z,29.50
2017-08-23T14:49:05.321Z,29.80
2017-08-23T14:51:31.739Z,29.50
2017-08-23T14:53:58.119Z,29.30
2017-08-23T14:56:24.494Z,29.20
2017-08-23T14:58:50.924Z,28.40
2017-08-23T15:01:17.326Z,28.10
2017-08-23T15:03:43.698Z,28.10
2017-08-23T15:06:10.101Z,28.60
2017-08-23T15:08:36.508Z,29.00
2017-08-23T15:11:02.935Z,28.90
2017-08-23T15:13:29.331Z,28.80
2017-08-23T15:15:55.740Z,28.10
2017-08-23T15:18:22.133Z,27.60
2017-08-23T15:20:48.511Z,27.00
2017-08-23T15:23:14.928Z,26.80
2017-08-23T15:25:41.336Z,26.60
2017-08-23T15:28:07.711Z,26.30
2017-08-23T15:30:34.123Z,26.20
2017-08-23T15:33:00.523Z,26.30
2017-08-23T15:35:26.923Z,26.30
2017-08-23T15:37:53.363Z,26.20
2017-08-23T15:40:19.773Z,26.00
2017-08-23T15:42:46.155Z,25.80
2017-08-23T15:45:12.659Z,25.70
2017-08-23T15:47:39.053Z,25.50
2017-08-23T15:50:05.430Z,25.60
2017-08-23T15:52:31.830Z,25.60
2017-08-23T15:54:58.223Z,25.60
2017-08-23T15:57:31.515Z,25.60
2017-08-23T15:59:57.889Z,25.60
2017-08-23T16:02:24.302Z,25.60
2017-08-23T16:04:50.703Z,25.60
2017-08-23T16:07:17.078Z,25.50
2017-08-23T16:09:43.476Z,25.40
2017-08-23T16:12:09.919Z,25.50
2017-08-23T16:14:36.476Z,25.40
2017-08-23T16:17:02.911Z,25.10
2017-08-23T16:19:29.307Z,25.10
2017-08-23T16:21:55.767Z,25.00
2017-08-23T16:24:22.156Z,25.00
2017-08-23T16:26:48.579Z,25.00
2017-08-23T16:29:14.956Z,25.10
2017-08-23T16:31:41.399Z,24.90
2017-08-23T16:34:07.782Z,24.80
2017-08-23T16:36:34.203Z,24.70
2017-08-23T16:39:00.587Z,24.70
2017-08-23T16:41:27.028Z,24.70
2017-08-23T16:43:53.478Z,24.70
2017-08-23T16:46:19.853Z,24.60
2017-08-23T16:48:46.258Z,24.50
2017-08-23T16:51:12.779Z,24.50
2017-08-23T16:53:39.179Z,24.40
2017-08-23T16:56:05.583Z,24.10
2017-08-23T16:58:32.088Z,24.00
2017-08-23T17:00:58.559Z,24.00
2017-08-23T17:03:24.940Z,24.00
2017-08-23T17:05:51.365Z,23.90
2017-08-23T17:08:17.740Z,23.80
2017-08-23T17:10:44.152Z,23.80
2017-08-23T17:13:10.631Z,23.90
2017-08-23T17:15:37.040Z,24.00
2017-08-23T17:18:03.418Z,24.10
2017-08-23T17:20:29.834Z,24.00
2017-08-23T17:22:56.275Z,24.00
2017-08-23T17:25:22.712Z,23.90
2017-08-23T17:27:49.100Z,23.90
2017-08-23T17:30:15.514Z,23.90
2017-08-23T17:32:42.004Z,23.80
2017-08-23T17:35:08.420Z,23.80
2017-08-23T17:37:34.835Z,23.70
2017-08-23T17:40:01.315Z,23.60
2017-08-23T17:42:27.851Z,23.50
2017-08-23T17:44:54.232Z,23.40
2017-08-23T17:47:20.643Z,23.40
2017-08-23T17:49:47.027Z,23.30
2017-08-23T17:52:13.492Z,23.20
2017-08-23T17:54:39.887Z,23.10
2017-08-23T17:57:06.304Z,23.00
2017-08-23T17:59:32.704Z,22.90
2017-08-23T18:01:59.195Z,22.90
2017-08-23T18:04:25.607Z,22.80
2017-08-23T18:06:51.981Z,22.80
2017-08-23T18:09:18.407Z,22.70
2017-08-23T18:11:44.836Z,22.70
2017-08-23T18:14:11.259Z,22.70
2017-08-23T18:16:37.671Z,22.60
2017-08-23T18:19:04.051Z,22.50
2017-08-23T18:21:30.527Z,22.50
2017-08-23T18:23:57.095Z,22.40
2017-08-23T18:26:23.630Z,22.40
2017-08-23T18:28:50.051Z,22.30
2017-08-23T18:31:16.480Z,22.20
2017-08-23T18:33:42.894Z,22.20
2017-08-23T18:36:10.039Z,22.10
2017-08-23T18:38:36.579Z,22.10
2017-08-23T18:41:03.176Z,22.10
2017-08-23T18:43:29.579Z,22.00
2017-08-23T18:45:56.005Z,21.90
2017-08-23T18:48:22.423Z,21.90
2017-08-23T18:50:48.824Z,21.80
2017-08-23T18:53:15.195Z,21.70
2017-08-23T18:55:41.612Z,21.70
2017-08-23T18:58:08.024Z,21.60
2017-08-23T19:00:34.438Z,21.50
2017-08-23T19:03:00.943Z,21.40
2017-08-23T19:05:27.351Z,21.40
2017-08-23T19:07:53.739Z,21.30
2017-08-23T19:10:20.135Z,21.30
2017-08-23T19:12:46.575Z,21.20
2017-08-23T19:15:12.972Z,21.20
2017-08-23T19:17:39.387Z,21.10
2017-08-23T19:20:05.768Z,21.00
2017-08-23T19:22:32.186Z,20.90
2017-08-23T19:24:58.597Z,20.90
2017-08-23T19:27:24.985Z,20.80
2017-08-23T19:29:51.372Z,20.80
2017-08-23T19:32:17.867Z,20.70
2017-08-23T19:34:44.455Z,20.60
2017-08-23T19:37:10.864Z,20.60
2017-08-23T19:39:37.239Z,20.50
2017-08-23T19:42:03.680Z,20.50
2017-08-23T19:44:30.065Z,20.40
2017-08-23T19:46:56.454Z,20.40
2017-08-23T19:49:22.851Z,20.30
2017-08-23T19:51:49.327Z,20.30
2017-08-23T19:54:15.754Z,20.20
2017-08-23T19:56:42.180Z,20.20
2017-08-23T19:59:08.592Z,20.10
2017-08-23T20:01:35.052Z,20.10
2017-08-23T20:04:01.451Z,20.00
2017-08-23T20:06:27.853Z,20.00
2017-08-23T20:08:54.250Z,19.90
2017-08-23T20:11:20.651Z,19.90
2017-08-23T20:13:47.062Z,19.80
2017-08-23T20:16:13.471Z,19.80
2017-08-23T20:18:39.884Z,19.70
2017-08-23T20:21:06.414Z,19.70
2017-08-23T20:23:32.825Z,19.60
2017-08-23T20:25:59.236Z,19.50
2017-08-23T20:28:25.624Z,19.50
2017-08-23T20:30:52.068Z,19.40
2017-08-23T20:33:18.466Z,19.40
2017-08-23T20:35:44.860Z,19.40
2017-08-23T20:38:11.311Z,19.40
2017-08-23T20:40:37.731Z,19.30
2017-08-23T20:43:04.182Z,19.30
2017-08-23T20:45:30.608Z,19.30
2017-08-23T20:47:57.021Z,19.30
2017-08-23T20:50:23.405Z,19.10
2017-08-23T20:52:49.819Z,19.10
2017-08-23T20:55:16.234Z,19.00
2017-08-23T20:57:42.626Z,19.00
2017-08-23T21:00:09.060Z,18.90
2017-08-23T21:02:35.604Z,18.90
2017-08-23T21:05:02.040Z,18.90
2017-08-23T21:07:28.491Z,18.80
2017-08-23T21:09:54.873Z,18.80
2017-08-23T21:12:21.324Z,18.70
2017-08-23T21:14:47.705Z,18.70
2017-08-23T21:17:14.104Z,18.70
2017-08-23T21:19:40.524Z,18.70
2017-08-23T21:22:07.940Z,18.60
2017-08-23T21:24:34.359Z,18.50
2017-08-23T21:27:00.788Z,18.50
2017-08-23T21:29:27.202Z,18.40
2017-08-23T21:31:53.671Z,18.40
2017-08-23T21:34:20.195Z,18.40
2017-08-23T21:36:46.575Z,18.40
2017-08-23T21:39:12.993Z,18.30
2017-08-23T21:41:39.431Z,18.30
2017-08-23T21:44:05.818Z,18.30
2017-08-23T21:46:32.232Z,18.20
2017-08-23T21:48:58.616Z,18.20
2017-08-23T21:51:25.030Z,18.20
2017-08-23T21:53:51.455Z,18.20
2017-08-23T21:56:17.827Z,18.10
2017-08-23T21:58:44.223Z,18.10
2017-08-23T22:01:10.672Z,18.00
2017-08-23T22:03:37.063Z,18.00
2017-08-23T22:06:03.459Z,18.00
2017-08-23T22:08:29.895Z,18.00
2017-08-23T22:10:56.296Z,17.90
2017-08-23T22:13:22.727Z,18.00
2017-08-23T22:15:49.108Z,17.90
2017-08-23T22:18:15.524Z,17.90
2017-08-23T22:20:41.907Z,17.80
2017-08-23T22:23:08.366Z,17.80
2017-08-23T22:25:34.804Z,17.80
2017-08-23T22:28:01.195Z,17.70
2017-08-23T22:30:27.612Z,17.70
2017-08-23T22:32:54.060Z,17.70
2017-08-23T22:35:20.439Z,17.80
2017-08-23T22:37:46.843Z,17.70
2017-08-23T22:40:13.254Z,17.70
2017-08-23T22:42:39.679Z,17.70
2017-08-23T22:45:06.090Z,17.80
2017-08-23T22:47:32.492Z,17.80
2017-08-23T22:49:58.871Z,17.70
2017-08-23T22:52:25.361Z,17.70
2017-08-23T22:54:51.752Z,17.70
2017-08-23T22:57:18.167Z,17.70
2017-08-23T22:59:44.579Z,17.70
2017-08-23T23:02:11.068Z,17.70
2017-08-23T23:04:37.456Z,17.60
2017-08-23T23:07:03.834Z,17.60
2017-08-23T23:09:30.247Z,17.60
2017-08-23T23:11:56.700Z,17.50
2017-08-23T23:14:23.100Z,17.50
2017-08-23T23:16:49.499Z,17.40
2017-08-23T23:19:15.938Z,17.40
2017-08-23T23:21:42.446Z,17.30
2017-08-23T23:24:08.875Z,17.30
2017-08-23T23:26:35.328Z,17.20
2017-08-23T23:29:01.715Z,17.20
2017-08-23T23:31:28.156Z,17.10
2017-08-23T23:33:54.598Z,17.10
2017-08-23T23:36:20.980Z,17.10
2017-08-23T23:38:47.381Z,17.10
2017-08-23T23:41:13.915Z,17.00
2017-08-23T23:43:40.282Z,17.00
2017-08-23T23:46:06.726Z,17.00
2017-08-23T23:48:33.127Z,17.00
2017-08-23T23:50:59.532Z,16.90
2017-08-23T23:53:25.944Z,16.90
2017-08-23T23:55:52.351Z,16.90
2017-08-23T23:58:18.745Z,16.80
